Time;durP1;ratioP1;P1;durP2;ratioP2;P2;SDS_P1;SDS_P2;PMS_P1;PMS_P2;Temp;Humidity;BMP_temperature;BMP_pressure;BME280_temperature;BME280_humidity;BME280_pressure;Samples;Min_cycle;Max_cycle;Signal;HPM_P1;HPM_P2
2022/04/12 00:00:38;;;;;;;;;;;22.50;30.10;;;;;;4947458;28;19981;-61
2022/04/12 00:03:06;;;;;;;;;;;22.50;30.10;;;;;;4949105;28;20021;-61
2022/04/12 00:05:33;;;;;;;;;;;22.60;30.00;;;;;;4947521;28;19930;-61
2022/04/12 00:08:01;;;;;;;;;;;22.60;30.00;;;;;;4949053;29;20021;-61
2022/04/12 00:10:29;;;;;;;;;;;22.60;30.00;;;;;;4948048;29;19933;-61
2022/04/12 00:12:56;;;;;;;;;;;22.60;30.00;;;;;;4948849;29;19981;-61
2022/04/12 00:15:24;;;;;;;;;;;22.60;30.00;;;;;;4946861;28;19926;-61
2022/04/12 00:20:38;;;;;;;;;;;22.60;30.00;;;;;;4948179;29;19926;-61
2022/04/12 00:23:06;;;;;;;;;;;22.60;30.00;;;;;;4948357;29;19936;-61
2022/04/12 00:25:33;;;;;;;;;;;22.60;30.00;;;;;;4948017;29;19974;-61
2022/04/12 00:28:00;;;;;;;;;;;22.60;30.00;;;;;;4948579;29;19981;-61
2022/04/12 00:30:27;;;;;;;;;;;22.60;30.00;;;;;;4948435;29;20020;-61
2022/04/12 00:32:54;;;;;;;;;;;22.60;30.00;;;;;;4948727;29;20009;-61
2022/04/12 00:35:23;;;;;;;;;;;22.60;30.00;;;;;;4947982;29;19937;-61
2022/04/12 00:37:50;;;;;;;;;;;22.60;30.00;;;;;;4931411;29;20398;-61
2022/04/12 00:40:18;;;;;;;;;;;22.60;30.00;;;;;;4947831;28;19972;-61
2022/04/12 00:42:46;;;;;;;;;;;22.60;30.00;;;;;;4947525;28;19974;-61
2022/04/12 00:45:13;;;;;;;;;;;22.60;30.00;;;;;;4948544;29;20032;-61
2022/04/12 00:47:40;;;;;;;;;;;22.50;30.00;;;;;;4943685;29;19926;-61
2022/04/12 00:50:09;;;;;;;;;;;22.50;30.00;;;;;;4930864;29;20481;-61
2022/04/12 00:52:38;;;;;;;;;;;22.50;30.00;;;;;;4947731;29;19927;-61
2022/04/12 00:55:06;;;;;;;;;;;22.50;30.00;;;;;;4947746;29;20366;-61
2022/04/12 00:57:33;;;;;;;;;;;22.50;30.00;;;;;;4948045;29;20382;-62
2022/04/12 01:00:00;;;;;;;;;;;22.50;30.00;;;;;;4947744;29;19930;-61
2022/04/12 01:02:27;;;;;;;;;;;22.50;30.10;;;;;;4948453;29;20768;-61
2022/04/12 01:04:54;;;;;;;;;;;22.50;30.10;;;;;;4947588;29;19926;-61
2022/04/12 01:07:21;;;;;;;;;;;22.50;30.00;;;;;;4947535;29;19969;-61
2022/04/12 01:09:48;;;;;;;;;;;22.50;30.00;;;;;;4947749;28;20011;-61
2022/04/12 01:12:18;;;;;;;;;;;22.50;30.00;;;;;;4947619;28;19973;-61
2022/04/12 01:14:46;;;;;;;;;;;22.60;30.00;;;;;;4947993;28;20035;-61
2022/04/12 01:17:12;;;;;;;;;;;22.60;30.00;;;;;;4930585;28;19926;-61
2022/04/12 01:19:39;;;;;;;;;;;22.50;30.00;;;;;;4943513;28;20424;-62
2022/04/12 01:22:08;;;;;;;;;;;22.60;30.00;;;;;;4947552;28;20052;-61
2022/04/12 01:24:35;;;;;;;;;;;22.60;30.00;;;;;;4947623;28;20017;-61
2022/04/12 01:27:03;;;;;;;;;;;22.60;30.00;;;;;;4947601;28;19961;-61
2022/04/12 01:29:32;;;;;;;;;;;22.60;30.00;;;;;;4947663;28;20293;-61
2022/04/12 01:31:59;;;;;;;;;;;22.60;30.00;;;;;;4947731;28;19930;-61
2022/04/12 01:34:26;;;;;;;;;;;22.60;30.00;;;;;;4948019;28;19926;-61
2022/04/12 01:36:53;;;;;;;;;;;22.60;30.00;;;;;;4947095;28;20000;-61
2022/04/12 01:39:20;;;;;;;;;;;22.60;30.00;;;;;;4930711;28;19934;-60
2022/04/12 01:41:47;;;;;;;;;;;22.60;30.00;;;;;;4946970;28;19927;-61
2022/04/12 01:44:14;;;;;;;;;;;22.60;30.00;;;;;;4948019;28;20350;-60
2022/04/12 01:46:41;;;;;;;;;;;22.60;30.00;;;;;;4947057;29;19936;-61
2022/04/12 01:49:08;;;;;;;;;;;22.60;30.00;;;;;;4947343;28;19974;-61
2022/04/12 01:51:35;;;;;;;;;;;22.60;30.00;;;;;;4943295;29;19926;-60
2022/04/12 01:54:02;;;;;;;;;;;22.60;30.00;;;;;;4947004;29;19930;-61
2022/04/12 01:56:31;;;;;;;;;;;22.60;30.00;;;;;;4947199;29;19931;-61
2022/04/12 01:58:59;;;;;;;;;;;22.60;30.00;;;;;;4947358;28;19949;-61
2022/04/12 02:01:26;;;;;;;;;;;22.60;30.00;;;;;;4947026;29;20014;-61
2022/04/12 02:03:54;;;;;;;;;;;22.60;30.00;;;;;;4947607;29;20289;-62
2022/04/12 02:06:21;;;;;;;;;;;22.60;30.00;;;;;;4946881;29;20390;-61
2022/04/12 02:08:48;;;;;;;;;;;22.60;30.00;;;;;;4947084;29;19970;-62
2022/04/12 02:11:15;;;;;;;;;;;22.60;30.00;;;;;;4946782;29;19969;-62
2022/04/12 02:13:42;;;;;;;;;;;22.60;30.00;;;;;;4930078;29;19970;-62
2022/04/12 02:16:09;;;;;;;;;;;22.60;30.00;;;;;;4946730;29;20037;-62
2022/04/12 02:18:36;;;;;;;;;;;22.60;30.00;;;;;;4946868;29;20378;-61
2022/04/12 02:21:03;;;;;;;;;;;22.60;30.00;;;;;;4945929;29;20348;-61
2022/04/12 02:23:30;;;;;;;;;;;22.60;30.00;;;;;;4927479;29;20290;-61
2022/04/12 02:25:57;;;;;;;;;;;22.60;30.00;;;;;;4947037;29;19930;-61
2022/04/12 02:28:24;;;;;;;;;;;22.60;30.00;;;;;;4946629;29;19927;-61
2022/04/12 02:30:51;;;;;;;;;;;22.60;30.00;;;;;;4947430;28;20061;-61
2022/04/12 02:33:18;;;;;;;;;;;22.60;30.00;;;;;;4947345;29;19996;-61
2022/04/12 02:35:45;;;;;;;;;;;22.50;30.00;;;;;;4946531;29;20421;-61
2022/04/12 02:38:13;;;;;;;;;;;22.60;30.00;;;;;;4946474;29;20341;-61
2022/04/12 02:40:40;;;;;;;;;;;22.50;30.00;;;;;;4946424;28;19934;-61
2022/04/12 02:43:07;;;;;;;;;;;22.50;30.00;;;;;;4946642;28;20442;-61
2022/04/12 02:45:34;;;;;;;;;;;22.50;30.00;;;;;;4947066;29;19927;-61
2022/04/12 02:48:01;;;;;;;;;;;22.50;30.00;;;;;;4946857;29;19931;-61
2022/04/12 02:50:29;;;;;;;;;;;22.50;30.00;;;;;;4946922;29;19934;-61
2022/04/12 02:52:57;;;;;;;;;;;22.50;30.00;;;;;;4943378;29;20294;-61
2022/04/12 02:55:24;;;;;;;;;;;22.50;30.00;;;;;;4929020;29;19927;-61
2022/04/12 02:57:51;;;;;;;;;;;22.50;30.00;;;;;;4965457;28;19926;-61
2022/04/12 03:00:18;;;;;;;;;;;22.50;30.00;;;;;;4948567;28;19980;-61
2022/04/12 03:02:45;;;;;;;;;;;22.50;30.00;;;;;;4965599;28;19927;-61
2022/04/12 03:05:13;;;;;;;;;;;22.50;30.00;;;;;;4967525;28;19930;-61
2022/04/12 03:07:40;;;;;;;;;;;22.50;30.00;;;;;;4968878;28;19964;-61
2022/04/12 03:10:07;;;;;;;;;;;22.50;30.00;;;;;;4969209;28;19971;-61
2022/04/12 03:12:34;;;;;;;;;;;22.50;30.00;;;;;;4968860;28;19973;-61
2022/04/12 03:15:02;;;;;;;;;;;22.50;30.00;;;;;;4968992;28;19933;-61
2022/04/12 03:17:29;;;;;;;;;;;22.50;30.00;;;;;;4969126;28;19952;-61
2022/04/12 03:19:56;;;;;;;;;;;22.50;30.00;;;;;;4969074;28;19926;-61
2022/04/12 03:22:23;;;;;;;;;;;22.50;30.00;;;;;;4968694;28;19927;-61
2022/04/12 03:24:50;;;;;;;;;;;22.50;30.00;;;;;;4964830;28;20601;-61
2022/04/12 03:27:17;;;;;;;;;;;22.50;30.00;;;;;;4968571;28;20390;-61
2022/04/12 03:29:44;;;;;;;;;;;22.50;30.00;;;;;;4968857;28;20345;-61
2022/04/12 03:32:11;;;;;;;;;;;22.50;30.00;;;;;;4951439;28;20003;-61
2022/04/12 03:34:40;;;;;;;;;;;22.50;30.00;;;;;;4968801;28;19930;-61
2022/04/12 03:37:07;;;;;;;;;;;22.50;30.00;;;;;;4966246;28;19952;-61
2022/04/12 03:39:34;;;;;;;;;;;22.50;30.00;;;;;;4968133;28;19981;-61
2022/04/12 03:42:04;;;;;;;;;;;22.50;30.00;;;;;;4946687;29;19960;-61
2022/04/12 03:44:31;;;;;;;;;;;22.50;30.00;;;;;;4948823;28;19927;-61
2022/04/12 03:46:58;;;;;;;;;;;22.50;30.00;;;;;;4962009;28;20325;-61
2022/04/12 03:49:25;;;;;;;;;;;22.50;30.00;;;;;;4957588;28;20343;-61
2022/04/12 03:51:52;;;;;;;;;;;22.50;30.00;;;;;;4967406;28;20382;-61
2022/04/12 03:54:23;;;;;;;;;;;22.50;30.00;;;;;;4968374;28;20029;-61
2022/04/12 03:56:50;;;;;;;;;;;22.50;30.00;;;;;;4952827;28;20367;-61
2022/04/12 03:59:17;;;;;;;;;;;22.40;30.00;;;;;;4948745;29;19972;-61
2022/04/12 04:01:46;;;;;;;;;;;22.50;30.00;;;;;;4948803;29;19970;-61
2022/04/12 04:04:13;;;;;;;;;;;22.50;30.00;;;;;;4949136;29;19926;-62
2022/04/12 04:06:40;;;;;;;;;;;22.50;30.00;;;;;;4964456;28;19972;-61
2022/04/12 04:09:07;;;;;;;;;;;22.50;30.00;;;;;;4967961;28;19949;-62
2022/04/12 04:11:38;;;;;;;;;;;22.50;30.00;;;;;;4968424;28;20255;-61
2022/04/12 04:14:06;;;;;;;;;;;22.40;30.00;;;;;;4950403;28;19957;-62
2022/04/12 04:16:34;;;;;;;;;;;22.50;30.00;;;;;;4966685;28;19926;-61
2022/04/12 04:19:02;;;;;;;;;;;22.50;30.00;;;;;;4967760;28;20405;-61
2022/04/12 04:21:29;;;;;;;;;;;22.50;30.00;;;;;;4968408;28;20345;-61
2022/04/12 04:23:56;;;;;;;;;;;22.50;30.00;;;;;;4967230;28;19926;-61
2022/04/12 04:26:23;;;;;;;;;;;22.50;30.00;;;;;;4960542;28;19976;-61
2022/04/12 04:28:51;;;;;;;;;;;22.50;30.00;;;;;;4962637;28;19930;-61
2022/04/12 04:31:18;;;;;;;;;;;22.50;30.00;;;;;;4968180;28;20021;-62
2022/04/12 04:33:49;;;;;;;;;;;22.50;30.00;;;;;;4968022;28;19926;-61
2022/04/12 04:36:16;;;;;;;;;;;22.50;30.00;;;;;;4967944;28;20013;-62
2022/04/12 04:38:43;;;;;;;;;;;22.50;30.00;;;;;;4967336;28;19992;-61
2022/04/12 04:41:11;;;;;;;;;;;22.50;30.00;;;;;;4967194;28;20389;-62
2022/04/12 04:43:38;;;;;;;;;;;22.50;30.00;;;;;;4967300;28;19931;-62
2022/04/12 04:46:05;;;;;;;;;;;22.50;29.90;;;;;;4961584;28;19968;-61
2022/04/12 04:48:32;;;;;;;;;;;22.50;29.90;;;;;;4949901;28;19934;-62
2022/04/12 04:50:59;;;;;;;;;;;22.60;29.90;;;;;;4947967;28;19934;-61
2022/04/12 04:53:27;;;;;;;;;;;22.60;29.90;;;;;;4948531;28;19930;-62
2022/04/12 04:55:54;;;;;;;;;;;22.60;29.90;;;;;;4964104;28;19972;-61
2022/04/12 04:58:21;;;;;;;;;;;22.60;29.90;;;;;;4955051;28;19926;-61
2022/04/12 05:00:48;;;;;;;;;;;22.60;29.90;;;;;;4962937;28;19926;-61
2022/04/12 05:03:15;;;;;;;;;;;22.60;29.90;;;;;;4967274;28;19926;-62
2022/04/12 05:05:42;;;;;;;;;;;22.70;29.90;;;;;;4967322;28;19979;-62
2022/04/12 05:08:09;;;;;;;;;;;22.60;29.90;;;;;;4966372;28;20374;-61
2022/04/12 05:10:36;;;;;;;;;;;22.70;29.90;;;;;;4946455;28;19926;-62
2022/04/12 05:13:03;;;;;;;;;;;22.60;29.90;;;;;;4961560;28;20628;-61
2022/04/12 05:15:31;;;;;;;;;;;22.60;29.80;;;;;;4962294;28;19930;-61
2022/04/12 05:18:03;;;;;;;;;;;22.60;29.70;;;;;;4963095;28;19926;-61
2022/04/12 05:20:30;;;;;;;;;;;22.60;29.70;;;;;;4952696;28;19933;-69
2022/04/12 05:22:57;;;;;;;;;;;22.70;29.70;;;;;;4957830;28;19933;-69
2022/04/12 05:25:24;;;;;;;;;;;22.70;29.60;;;;;;4947014;28;20386;-69
2022/04/12 05:27:51;;;;;;;;;;;22.70;29.50;;;;;;4952400;28;19954;-69
2022/04/12 05:30:19;;;;;;;;;;;22.80;29.50;;;;;;4933876;28;19930;-62
2022/04/12 05:32:46;;;;;;;;;;;22.80;29.40;;;;;;4946716;28;19926;-69
2022/04/12 05:35:13;;;;;;;;;;;22.90;29.40;;;;;;4940476;28;19976;-69
2022/04/12 05:37:42;;;;;;;;;;;22.90;29.30;;;;;;4949587;28;19927;-66
2022/04/12 05:40:10;;;;;;;;;;;23.00;29.30;;;;;;4952202;28;20444;-68
2022/04/12 05:42:39;;;;;;;;;;;23.10;29.20;;;;;;4949064;28;19926;-70
2022/04/12 05:45:07;;;;;;;;;;;23.20;29.20;;;;;;4949900;28;19931;-71
2022/04/12 05:47:42;;;;;;;;;;;23.20;29.10;;;;;;4949464;28;20014;-68
2022/04/12 05:50:09;;;;;;;;;;;23.30;29.10;;;;;;4934324;28;20101;-69
2022/04/12 05:52:38;;;;;;;;;;;23.40;29.00;;;;;;4949722;28;19926;-70
2022/04/12 05:55:06;;;;;;;;;;;23.40;29.30;;;;;;4948856;28;19984;-66
2022/04/12 05:57:47;;;;;;;;;;;23.50;28.90;;;;;;4946915;28;19935;-70
2022/04/12 06:00:14;;;;;;;;;;;23.60;28.70;;;;;;4951968;28;20017;-69
2022/04/12 06:02:42;;;;;;;;;;;23.60;28.60;;;;;;4946910;28;19973;-65
2022/04/12 06:05:13;;;;;;;;;;;23.70;28.60;;;;;;4950914;28;20016;-68
2022/04/12 06:07:41;;;;;;;;;;;23.80;28.80;;;;;;4952929;28;20658;-69
2022/04/12 06:10:08;;;;;;;;;;;23.90;28.80;;;;;;4952812;28;20014;-69
2022/04/12 06:12:35;;;;;;;;;;;23.90;29.20;;;;;;4950159;28;19981;-70
2022/04/12 06:15:03;;;;;;;;;;;23.90;29.20;;;;;;4957886;28;19969;-69
2022/04/12 06:17:31;;;;;;;;;;;24.00;29.20;;;;;;4954135;28;20051;-68
2022/04/12 06:20:00;;;;;;;;;;;24.00;29.20;;;;;;4950386;28;19926;-67
2022/04/12 06:22:27;;;;;;;;;;;24.00;29.20;;;;;;4949521;28;19926;-67
2022/04/12 06:24:55;;;;;;;;;;;24.00;29.10;;;;;;4945738;28;19934;-68
2022/04/12 06:27:32;;;;;;;;;;;24.00;29.10;;;;;;4949672;28;19981;-67
2022/04/12 06:30:08;;;;;;;;;;;24.10;29.00;;;;;;4953155;28;20402;-69
2022/04/12 06:32:36;;;;;;;;;;;24.10;29.00;;;;;;4930347;28;19927;-71
2022/04/12 06:35:04;;;;;;;;;;;24.10;29.10;;;;;;4946346;28;20004;-71
2022/04/12 06:37:31;;;;;;;;;;;24.10;28.90;;;;;;4945741;28;19945;-69
2022/04/12 06:39:58;;;;;;;;;;;24.20;28.90;;;;;;4952287;28;20340;-69
2022/04/12 06:42:25;;;;;;;;;;;24.20;28.90;;;;;;4956586;28;20385;-69
2022/04/12 06:44:52;;;;;;;;;;;24.20;28.90;;;;;;4953970;28;20344;-68
2022/04/12 06:47:20;;;;;;;;;;;24.20;28.90;;;;;;4949213;28;19935;-70
2022/04/12 06:49:49;;;;;;;;;;;24.20;28.90;;;;;;4958264;28;19938;-70
2022/04/12 06:52:16;;;;;;;;;;;24.20;28.90;;;;;;4953820;28;19930;-70
2022/04/12 06:54:43;;;;;;;;;;;24.30;28.80;;;;;;4955508;28;20457;-69
2022/04/12 06:57:10;;;;;;;;;;;24.30;28.80;;;;;;4951538;28;19930;-68
2022/04/12 06:59:39;;;;;;;;;;;24.30;28.70;;;;;;4952144;28;20420;-73
2022/04/12 07:02:06;;;;;;;;;;;24.30;28.80;;;;;;4953476;28;19926;-70
2022/04/12 07:04:33;;;;;;;;;;;24.30;28.80;;;;;;4956186;28;20013;-71
2022/04/12 07:07:01;;;;;;;;;;;24.30;28.80;;;;;;4950275;28;20370;-66
2022/04/12 07:09:28;;;;;;;;;;;24.30;28.90;;;;;;4950051;28;19934;-69
2022/04/12 07:11:56;;;;;;;;;;;24.40;28.90;;;;;;4951567;28;19926;-69
2022/04/12 07:14:23;;;;;;;;;;;24.40;29.00;;;;;;4953227;28;19988;-68
2022/04/12 07:16:50;;;;;;;;;;;24.50;29.00;;;;;;4954722;28;19930;-65
2022/04/12 07:19:17;;;;;;;;;;;24.50;29.00;;;;;;4951855;28;19984;-68
2022/04/12 07:21:44;;;;;;;;;;;24.50;29.00;;;;;;4962921;28;19980;-67
2022/04/12 07:24:11;;;;;;;;;;;24.50;28.90;;;;;;4956582;28;19941;-68
2022/04/12 07:26:38;;;;;;;;;;;24.50;28.90;;;;;;4961254;28;19926;-67
2022/04/12 07:29:06;;;;;;;;;;;24.60;28.80;;;;;;4972729;28;19999;-67
2022/04/12 07:31:33;;;;;;;;;;;24.50;29.00;;;;;;4955328;28;19926;-70
2022/04/12 07:34:01;;;;;;;;;;;24.60;28.60;;;;;;4950197;28;19933;-67
2022/04/12 07:36:28;;;;;;;;;;;24.60;28.50;;;;;;4951800;28;19933;-67
2022/04/12 07:38:56;;;;;;;;;;;24.60;28.50;;;;;;4952174;28;19957;-68
2022/04/12 07:41:22;;;;;;;;;;;24.60;28.40;;;;;;4947385;28;19930;-70
2022/04/12 07:43:52;;;;;;;;;;;24.70;28.50;;;;;;4953155;28;19930;-66
2022/04/12 07:46:19;;;;;;;;;;;24.70;28.40;;;;;;4951156;28;20409;-68
2022/04/12 07:48:49;;;;;;;;;;;24.70;28.30;;;;;;4955448;28;19930;-72
2022/04/12 07:51:15;;;;;;;;;;;24.70;28.20;;;;;;4951717;28;20290;-72
2022/04/12 07:53:42;;;;;;;;;;;24.80;28.00;;;;;;4948228;28;20017;-73
2022/04/12 07:56:09;;;;;;;;;;;24.70;28.00;;;;;;4952188;28;19931;-70
2022/04/12 07:58:38;;;;;;;;;;;24.80;28.10;;;;;;4955966;28;19930;-72
2022/04/12 08:01:05;;;;;;;;;;;24.80;28.00;;;;;;4951849;28;19972;-73
2022/04/12 08:03:32;;;;;;;;;;;24.80;28.00;;;;;;4958449;28;20258;-69
2022/04/12 08:05:59;;;;;;;;;;;24.80;28.00;;;;;;4950777;28;19977;-71
2022/04/12 08:08:26;;;;;;;;;;;24.90;28.00;;;;;;4953125;28;19934;-69
2022/04/12 08:10:53;;;;;;;;;;;24.90;28.10;;;;;;4948434;28;19926;-70
2022/04/12 08:13:20;;;;;;;;;;;24.90;28.00;;;;;;4948639;28;20020;-68
2022/04/12 08:15:47;;;;;;;;;;;24.90;28.10;;;;;;4949280;28;19952;-68
2022/04/12 08:18:14;;;;;;;;;;;24.90;28.00;;;;;;4949094;28;20386;-68
2022/04/12 08:20:41;;;;;;;;;;;24.90;28.10;;;;;;4954263;28;20364;-68
2022/04/12 08:23:09;;;;;;;;;;;25.00;28.10;;;;;;4952269;28;19976;-66
2022/04/12 08:25:36;;;;;;;;;;;25.10;28.20;;;;;;4953864;28;19980;-67
2022/04/12 08:28:03;;;;;;;;;;;25.00;28.60;;;;;;4949642;28;20026;-66
2022/04/12 08:30:30;;;;;;;;;;;25.10;28.10;;;;;;4950552;28;19965;-65
2022/04/12 08:32:57;;;;;;;;;;;25.10;28.00;;;;;;4946327;28;19938;-66
2022/04/12 08:35:25;;;;;;;;;;;25.10;27.90;;;;;;4958325;28;19941;-67
2022/04/12 08:37:52;;;;;;;;;;;25.20;28.00;;;;;;4953295;28;20378;-68
2022/04/12 08:40:19;;;;;;;;;;;25.20;27.90;;;;;;4948368;28;19995;-68
2022/04/12 08:42:46;;;;;;;;;;;25.20;27.80;;;;;;4950801;28;19933;-70
2022/04/12 08:45:14;;;;;;;;;;;25.20;27.80;;;;;;4952668;28;20643;-68
2022/04/12 08:47:41;;;;;;;;;;;25.30;28.00;;;;;;4956768;28;20390;-69
2022/04/12 08:50:09;;;;;;;;;;;25.30;27.90;;;;;;4951418;28;19991;-67
2022/04/12 08:52:37;;;;;;;;;;;25.30;27.80;;;;;;4952924;28;20283;-69
2022/04/12 08:55:05;;;;;;;;;;;25.30;27.70;;;;;;4952164;28;19930;-70
2022/04/12 08:57:32;;;;;;;;;;;25.30;27.70;;;;;;4953283;28;19927;-70
2022/04/12 08:59:59;;;;;;;;;;;25.30;27.60;;;;;;4957035;28;19957;-70
2022/04/12 09:02:26;;;;;;;;;;;25.40;27.70;;;;;;4949138;28;19927;-69
2022/04/12 09:04:54;;;;;;;;;;;25.40;27.60;;;;;;4948088;28;19935;-72
2022/04/12 09:07:25;;;;;;;;;;;25.40;27.60;;;;;;4950664;28;19968;-69
2022/04/12 09:09:53;;;;;;;;;;;25.40;27.50;;;;;;4937285;28;20070;-67
2022/04/12 09:12:20;;;;;;;;;;;25.40;27.90;;;;;;4954362;28;19949;-69
2022/04/12 09:14:54;;;;;;;;;;;25.40;27.50;;;;;;4952859;28;20381;-69
2022/04/12 09:17:35;;;;;;;;;;;25.40;27.40;;;;;;4946387;28;20772;-69
2022/04/12 09:20:04;;;;;;;;;;;25.40;27.50;;;;;;4923681;28;19987;-69
2022/04/12 09:22:34;;;;;;;;;;;25.40;27.90;;;;;;4937014;28;20024;-68
2022/04/12 09:25:10;;;;;;;;;;;25.40;27.50;;;;;;4940841;28;19926;-70
2022/04/12 09:27:40;;;;;;;;;;;25.50;27.60;;;;;;4938939;28;19932;-72
2022/04/12 09:30:12;;;;;;;;;;;25.50;27.60;;;;;;4945742;28;19926;-64
2022/04/12 09:32:40;;;;;;;;;;;25.50;27.60;;;;;;4955118;28;19973;-63
2022/04/12 09:35:07;;;;;;;;;;;25.60;27.70;;;;;;4950170;28;20641;-64
2022/04/12 09:37:36;;;;;;;;;;;25.60;27.70;;;;;;4952606;28;19938;-64
2022/04/12 09:40:04;;;;;;;;;;;25.60;27.70;;;;;;4949603;28;20098;-67
2022/04/12 09:42:45;;;;;;;;;;;25.60;27.70;;;;;;4952916;28;19934;-67
2022/04/12 09:45:13;;;;;;;;;;;25.70;27.70;;;;;;4945657;28;19965;-68
2022/04/12 09:47:41;;;;;;;;;;;25.70;27.70;;;;;;4951437;28;20361;-69
2022/04/12 09:50:30;;;;;;;;;;;25.70;27.70;;;;;;4948927;28;19938;-69
2022/04/12 09:52:58;;;;;;;;;;;25.70;27.70;;;;;;4937075;28;19934;-68
2022/04/12 09:55:36;;;;;;;;;;;25.80;27.60;;;;;;4953454;28;20345;-70
2022/04/12 09:58:23;;;;;;;;;;;25.80;27.60;;;;;;4947479;28;20029;-69
2022/04/12 10:00:50;;;;;;;;;;;25.80;27.60;;;;;;4952406;28;19952;-69
2022/04/12 10:03:18;;;;;;;;;;;25.80;27.60;;;;;;4951929;28;20392;-65
2022/04/12 10:05:46;;;;;;;;;;;25.80;27.60;;;;;;4954525;28;19972;-68
2022/04/12 10:08:16;;;;;;;;;;;25.80;27.50;;;;;;4951546;28;19930;-67
2022/04/12 10:10:43;;;;;;;;;;;25.80;27.40;;;;;;4958855;28;19930;-66
2022/04/12 10:13:11;;;;;;;;;;;25.80;27.20;;;;;;4950132;28;19972;-65
2022/04/12 10:15:38;;;;;;;;;;;25.80;27.10;;;;;;4956153;28;20374;-64
2022/04/12 10:18:05;;;;;;;;;;;25.80;27.00;;;;;;4955657;28;19999;-65
2022/04/12 10:20:32;;;;;;;;;;;25.80;26.90;;;;;;4957362;28;19926;-66
2022/04/12 10:23:01;;;;;;;;;;;25.80;26.90;;;;;;4954861;28;19988;-67
2022/04/12 10:25:28;;;;;;;;;;;25.80;26.80;;;;;;4959632;28;19926;-67
2022/04/12 10:27:59;;;;;;;;;;;25.80;26.80;;;;;;4954355;28;19930;-66
2022/04/12 10:30:28;;;;;;;;;;;25.70;26.70;;;;;;4963417;28;20334;-66
2022/04/12 10:33:08;;;;;;;;;;;25.70;26.60;;;;;;4960153;28;19930;-66
2022/04/12 10:35:56;;;;;;;;;;;25.70;26.60;;;;;;4952530;28;19934;-68
2022/04/12 10:38:23;;;;;;;;;;;25.70;26.60;;;;;;4935030;28;19939;-69
2022/04/12 10:40:52;;;;;;;;;;;25.70;26.60;;;;;;4956382;28;20329;-65
2022/04/12 10:43:36;;;;;;;;;;;25.60;25.20;;;;;;4953435;28;19926;-67
2022/04/12 10:46:05;;;;;;;;;;;25.60;26.10;;;;;;4952503;28;20746;-66
2022/04/12 10:48:33;;;;;;;;;;;25.60;26.30;;;;;;4952068;28;19927;-67
2022/04/12 10:51:02;;;;;;;;;;;25.60;26.40;;;;;;4949533;28;20444;-67
2022/04/12 10:53:50;;;;;;;;;;;25.60;26.60;;;;;;4956677;28;20442;-69
2022/04/12 10:56:21;;;;;;;;;;;25.60;26.60;;;;;;4937320;28;19935;-67
2022/04/12 10:58:49;;;;;;;;;;;25.70;26.60;;;;;;4953266;28;19934;-67
2022/04/12 11:01:27;;;;;;;;;;;25.70;26.50;;;;;;4947680;28;20414;-63
2022/04/12 11:03:56;;;;;;;;;;;25.70;26.50;;;;;;4950274;28;19934;-67
2022/04/12 11:06:24;;;;;;;;;;;25.70;26.50;;;;;;4952798;28;19927;-68
2022/04/12 11:08:53;;;;;;;;;;;25.70;26.50;;;;;;4953006;28;19988;-68
2022/04/12 11:11:23;;;;;;;;;;;25.70;26.40;;;;;;4954205;28;19987;-71
2022/04/12 11:13:50;;;;;;;;;;;25.80;26.40;;;;;;4953164;28;20402;-68
2022/04/12 11:16:18;;;;;;;;;;;25.80;26.40;;;;;;4954301;28;19930;-66
2022/04/12 11:18:53;;;;;;;;;;;25.80;26.50;;;;;;4945383;28;19945;-68
2022/04/12 11:21:21;;;;;;;;;;;25.80;26.50;;;;;;4954250;28;19965;-66
2022/04/12 11:23:56;;;;;;;;;;;25.80;26.70;;;;;;4950822;28;19933;-66
2022/04/12 11:26:50;;;;;;;;;;;25.80;26.80;;;;;;4952311;28;20378;-69
2022/04/12 11:29:19;;;;;;;;;;;25.90;26.90;;;;;;4955477;28;19930;-70
2022/04/12 11:31:51;;;;;;;;;;;25.90;27.00;;;;;;4962731;28;20390;-68
2022/04/12 11:34:18;;;;;;;;;;;25.90;27.00;;;;;;4958571;28;19926;-73
2022/04/12 11:36:52;;;;;;;;;;;25.90;27.00;;;;;;4955659;28;20267;-69
2022/04/12 11:39:20;;;;;;;;;;;26.00;27.10;;;;;;4955747;28;19972;-69
2022/04/12 11:41:47;;;;;;;;;;;26.00;27.10;;;;;;4954724;28;19933;-69
2022/04/12 11:44:15;;;;;;;;;;;26.00;27.20;;;;;;4960119;28;19926;-72
2022/04/12 11:46:41;;;;;;;;;;;26.00;27.10;;;;;;4954337;28;20448;-66
2022/04/12 11:49:10;;;;;;;;;;;26.00;27.10;;;;;;4952820;28;19926;-68
2022/04/12 11:51:43;;;;;;;;;;;26.10;27.10;;;;;;4952674;28;19926;-68
2022/04/12 11:54:27;;;;;;;;;;;26.10;27.10;;;;;;4956820;28;20335;-68
2022/04/12 11:57:09;;;;;;;;;;;26.10;27.00;;;;;;4952438;28;20325;-68
2022/04/12 11:59:37;;;;;;;;;;;26.10;26.80;;;;;;4957589;28;19988;-71
2022/04/12 12:02:05;;;;;;;;;;;26.20;27.00;;;;;;4949303;28;20379;-73
2022/04/12 12:04:33;;;;;;;;;;;26.10;26.80;;;;;;4934715;29;19926;-67
2022/04/12 12:07:05;;;;;;;;;;;26.10;26.90;;;;;;4930744;28;20354;-73
2022/04/12 12:09:34;;;;;;;;;;;26.10;25.10;;;;;;4956818;28;20432;-72
2022/04/12 12:12:04;;;;;;;;;;;26.00;25.50;;;;;;4951986;28;19926;-72
2022/04/12 12:14:32;;;;;;;;;;;26.00;26.00;;;;;;4971531;28;19957;-73
2022/04/12 12:17:03;;;;;;;;;;;26.00;26.20;;;;;;4951013;28;20271;-73
2022/04/12 12:19:33;;;;;;;;;;;26.00;26.30;;;;;;4949361;28;20037;-72
2022/04/12 12:22:02;;;;;;;;;;;26.00;26.30;;;;;;4945180;28;19972;-73
2022/04/12 12:24:29;;;;;;;;;;;26.00;26.30;;;;;;4954992;28;19926;-74
2022/04/12 12:26:56;;;;;;;;;;;26.00;26.30;;;;;;4948735;28;19953;-72
2022/04/12 12:29:26;;;;;;;;;;;26.00;26.70;;;;;;4960692;28;20343;-69
2022/04/12 12:31:54;;;;;;;;;;;26.00;26.50;;;;;;4947472;28;19938;-69
2022/04/12 12:34:38;;;;;;;;;;;26.00;26.40;;;;;;4954381;28;19949;-70
2022/04/12 12:37:10;;;;;;;;;;;26.10;26.50;;;;;;4951365;28;19960;-70
2022/04/12 12:39:43;;;;;;;;;;;26.10;26.60;;;;;;4954821;28;19972;-65
2022/04/12 12:42:10;;;;;;;;;;;26.10;26.60;;;;;;4954714;28;19934;-67
2022/04/12 12:44:37;;;;;;;;;;;26.10;26.70;;;;;;4950631;28;20340;-68
2022/04/12 12:47:04;;;;;;;;;;;26.10;26.80;;;;;;4948315;28;19970;-69
2022/04/12 12:49:36;;;;;;;;;;;26.10;26.80;;;;;;4955181;28;19933;-68
2022/04/12 12:52:12;;;;;;;;;;;26.10;26.80;;;;;;4947527;28;20025;-68
2022/04/12 12:54:39;;;;;;;;;;;26.10;26.90;;;;;;4946864;28;20425;-69
2022/04/12 12:57:09;;;;;;;;;;;26.10;27.00;;;;;;4937341;28;19934;-70
2022/04/12 12:59:37;;;;;;;;;;;26.20;27.00;;;;;;4948278;28;19982;-70
2022/04/12 13:02:09;;;;;;;;;;;26.20;27.10;;;;;;4952323;28;20338;-71
2022/04/12 13:04:36;;;;;;;;;;;26.20;27.10;;;;;;4949932;28;19930;-70
2022/04/12 13:07:05;;;;;;;;;;;26.20;27.20;;;;;;4954979;28;19958;-69
2022/04/12 13:09:37;;;;;;;;;;;26.30;27.00;;;;;;4952697;28;20431;-73
2022/04/12 13:12:05;;;;;;;;;;;26.30;27.00;;;;;;4955236;28;20352;-72
2022/04/12 13:14:32;;;;;;;;;;;26.30;27.00;;;;;;4952868;28;19930;-73
2022/04/12 13:16:59;;;;;;;;;;;26.30;26.90;;;;;;4949376;28;19980;-68
2022/04/12 13:19:26;;;;;;;;;;;26.30;26.90;;;;;;4950308;28;19927;-70
2022/04/12 13:21:53;;;;;;;;;;;26.30;26.80;;;;;;4951067;28;19926;-69
2022/04/12 13:24:21;;;;;;;;;;;26.30;26.70;;;;;;4943611;28;20425;-69
2022/04/12 13:26:50;;;;;;;;;;;26.30;26.80;;;;;;4948203;28;20352;-70
2022/04/12 13:29:18;;;;;;;;;;;26.30;26.70;;;;;;4954665;28;20401;-71
2022/04/12 13:31:45;;;;;;;;;;;26.30;26.60;;;;;;4947578;28;19927;-76
2022/04/12 13:34:12;;;;;;;;;;;26.30;26.50;;;;;;4957035;28;19926;-71
2022/04/12 13:36:39;;;;;;;;;;;26.30;26.50;;;;;;4948321;28;19961;-72
2022/04/12 13:39:10;;;;;;;;;;;26.30;26.60;;;;;;4950055;28;20409;-71
2022/04/12 13:41:38;;;;;;;;;;;26.30;26.50;;;;;;4938907;28;20024;-71
2022/04/12 13:44:05;;;;;;;;;;;26.30;26.50;;;;;;4949440;28;20018;-71
2022/04/12 13:46:52;;;;;;;;;;;26.30;26.50;;;;;;4953525;28;20021;-72
2022/04/12 13:49:20;;;;;;;;;;;26.30;26.40;;;;;;4951526;28;19976;-71
2022/04/12 13:51:47;;;;;;;;;;;26.30;26.90;;;;;;4952888;28;19996;-67
2022/04/12 13:54:14;;;;;;;;;;;26.30;26.40;;;;;;4952315;28;19927;-68
2022/04/12 13:56:41;;;;;;;;;;;26.30;26.50;;;;;;4947016;28;19976;-71
2022/04/12 13:59:08;;;;;;;;;;;26.30;26.40;;;;;;4947670;28;19961;-71
2022/04/12 14:01:35;;;;;;;;;;;26.30;26.40;;;;;;4947784;28;19999;-68
2022/04/12 14:04:02;;;;;;;;;;;26.30;26.50;;;;;;4948646;28;19996;-68
2022/04/12 14:06:30;;;;;;;;;;;26.20;26.40;;;;;;4956645;28;19934;-69
2022/04/12 14:08:57;;;;;;;;;;;26.20;26.40;;;;;;4947497;28;19934;-67
2022/04/12 14:11:24;;;;;;;;;;;26.20;26.60;;;;;;4952191;28;20571;-64
2022/04/12 14:13:51;;;;;;;;;;;26.20;26.60;;;;;;4948712;28;19992;-65
2022/04/12 14:16:18;;;;;;;;;;;26.20;26.60;;;;;;4915209;29;19961;-68
2022/04/12 14:18:45;;;;;;;;;;;26.20;26.70;;;;;;4951189;28;19997;-67
2022/04/12 14:21:13;;;;;;;;;;;26.20;26.70;;;;;;4950384;28;20007;-67
2022/04/12 14:23:45;;;;;;;;;;;26.20;26.70;;;;;;4951088;28;19926;-63
2022/04/12 14:26:13;;;;;;;;;;;26.20;26.80;;;;;;4954860;28;20342;-66